createdAt,value
2023-02-19T00:01:31.628Z,99906.31
2023-02-19T00:04:00.398Z,99907.97
2023-02-19T00:09:26.890Z,99905.09
2023-02-19T00:11:55.779Z,99910.41
2023-02-19T00:14:23.295Z,99908.94
2023-02-19T00:16:50.929Z,99891.88
2023-02-19T00:22:16.685Z,99894.72
2023-02-19T00:24:44.136Z,99895.38
2023-02-19T00:27:35.602Z,99892.72
2023-02-19T00:30:04.746Z,99871.88
2023-02-19T00:35:20.686Z,99867.22
2023-02-19T00:37:48.191Z,99868.56
2023-02-19T00:40:15.862Z,99877.34
2023-02-19T00:42:43.294Z,99880.31
2023-02-19T00:45:12.245Z,99879.78
2023-02-19T00:50:42.690Z,99875.28
2023-02-19T00:53:10.129Z,99864.84
2023-02-19T00:55:37.562Z,99867.19
2023-02-19T00:58:05.080Z,99862.72
2023-02-19T01:03:36.311Z,99865.69
2023-02-19T01:06:03.996Z,99874.63
2023-02-19T01:08:32.018Z,99864.16
2023-02-19T01:14:00.456Z,99863.19
2023-02-19T01:16:28.561Z,99857.69
2023-02-19T01:18:58.041Z,99856.03
2023-02-19T01:24:28.170Z,99855.22
2023-02-19T01:26:55.610Z,99862.34
2023-02-19T01:29:23.087Z,99871.75
2023-02-19T01:32:04.476Z,99868.16
2023-02-19T01:34:34.055Z,99869.63
2023-02-19T01:37:02.001Z,99850.09
2023-02-19T01:39:29.459Z,99852.66
2023-02-19T01:41:58.459Z,99858.38
2023-02-19T01:45:14.631Z,99853.38
2023-02-19T01:47:42.096Z,99855.19
2023-02-19T01:50:10.950Z,99860.19
2023-02-19T01:52:38.473Z,99861.84
2023-02-19T01:55:08.233Z,99865.69
2023-02-19T02:00:26.705Z,99861.06
2023-02-19T02:06:05.731Z,99848.09
2023-02-19T02:08:51.949Z,99849.56
2023-02-19T02:11:24.341Z,99856.53
2023-02-19T02:13:52.572Z,99847.41
2023-02-19T02:19:32.060Z,99858.25
2023-02-19T02:22:08.227Z,99854.59
2023-02-19T02:25:18.371Z,99861.75
2023-02-19T02:27:54.607Z,99862.72
2023-02-19T02:30:41.284Z,99856.44
2023-02-19T02:36:14.214Z,99854.75
2023-02-19T02:38:44.065Z,99859.06
2023-02-19T02:41:13.358Z,99851.91
2023-02-19T02:43:41.105Z,99853.94
2023-02-19T02:49:14.053Z,99851.28
2023-02-19T02:51:44.576Z,99853.94
2023-02-19T02:54:39.183Z,99858.44
2023-02-19T02:57:14.773Z,99862.41
2023-02-19T02:59:49.008Z,99855.78
2023-02-19T03:02:22.881Z,99860.56
2023-02-19T03:07:46.017Z,99851.78
2023-02-19T03:10:18.576Z,99858.78
2023-02-19T03:15:49.059Z,99861.25
2023-02-19T03:21:20.235Z,99857.94
2023-02-19T03:24:07.426Z,99848.66
2023-02-19T03:26:35.204Z,99844.81
2023-02-19T03:29:21.940Z,99855.59
2023-02-19T03:32:06.540Z,99852.44
2023-02-19T03:34:37.606Z,99864.72
2023-02-19T03:37:11.506Z,99865.06
2023-02-19T03:39:45.146Z,99867.72
2023-02-19T03:42:21.731Z,99864.25
2023-02-19T03:47:43.550Z,99872.69
2023-02-19T03:50:18.001Z,99868.38
2023-02-19T03:52:55.126Z,99875.88
2023-02-19T03:55:27.640Z,99877.66
2023-02-19T03:57:58.295Z,99880.47
2023-02-19T04:00:32.369Z,99892.41
2023-02-19T04:03:04.914Z,99883.97
2023-02-19T04:05:34.344Z,99890.28
2023-02-19T04:08:05.607Z,99899.09
2023-02-19T04:10:41.446Z,99898.78
2023-02-19T04:13:20.647Z,99908.38
2023-02-19T04:15:50.383Z,99900.94
2023-02-19T04:18:19.899Z,99903.25
2023-02-19T04:20:48.559Z,99903.63
2023-02-19T04:26:09.351Z,99920.50
2023-02-19T04:28:36.974Z,99913.56
2023-02-19T04:31:04.601Z,99912.91
2023-02-19T04:33:32.050Z,99925.19
2023-02-19T04:35:59.455Z,99936.44
2023-02-19T04:38:27.012Z,99936.13
2023-02-19T04:40:54.469Z,99939.75
2023-02-19T04:43:23.278Z,99948.34
2023-02-19T04:48:42.972Z,99944.38
2023-02-19T04:51:11.311Z,99954.84
2023-02-19T04:56:37.749Z,99961.47
2023-02-19T04:59:06.769Z,99969.09
2023-02-19T05:01:34.249Z,99972.91
2023-02-19T05:04:01.793Z,99971.25
2023-02-19T05:06:29.281Z,99978.69
2023-02-19T05:08:56.942Z,99968.59
2023-02-19T05:11:24.613Z,99977.88
2023-02-19T05:13:52.105Z,99971.72
2023-02-19T05:19:19.043Z,99980.69
2023-02-19T05:21:46.534Z,99984.34
2023-02-19T05:24:14.389Z,99977.34
2023-02-19T05:26:44.048Z,99988.81
2023-02-19T05:29:12.505Z,99986.97
2023-02-19T05:34:39.634Z,100004.53
2023-02-19T05:37:07.054Z,100004.38
2023-02-19T05:39:34.885Z,100007.22
2023-02-19T05:42:02.294Z,99999.91
2023-02-19T05:44:30.139Z,100014.16
2023-02-19T05:49:57.065Z,100024.41
2023-02-19T05:52:24.502Z,100015.47
2023-02-19T05:54:51.894Z,100032.53
2023-02-19T05:57:20.526Z,100032.72
2023-02-19T05:59:48.086Z,100034.03
2023-02-19T06:02:15.527Z,100038.50
2023-02-19T06:04:42.949Z,100042.81
2023-02-19T06:07:11.714Z,100041.66
2023-02-19T06:09:39.439Z,100059.56
2023-02-19T06:12:08.175Z,100057.09
2023-02-19T06:14:35.635Z,100065.41
2023-02-19T06:19:51.775Z,100057.25
2023-02-19T06:22:20.680Z,100080.44
2023-02-19T06:24:48.339Z,100080.94
2023-02-19T06:27:40.956Z,100085.56
2023-02-19T06:30:09.721Z,100081.25
2023-02-19T06:35:25.683Z,100119.78
2023-02-19T06:37:54.427Z,100114.56
2023-02-19T06:40:21.938Z,100147.25
2023-02-19T06:42:49.456Z,100158.47
2023-02-19T06:45:17.036Z,100167.22
2023-02-19T06:47:44.460Z,100166.13
2023-02-19T06:50:11.935Z,100172.56
2023-02-19T06:52:39.407Z,100179.97
2023-02-19T06:55:08.281Z,100174.97
2023-02-19T07:00:24.974Z,100217.09
2023-02-19T07:02:56.298Z,100202.81
2023-02-19T07:05:25.397Z,100218.25
2023-02-19T07:07:52.810Z,100226.81
2023-02-19T07:10:21.560Z,100246.25
2023-02-19T07:16:02.138Z,100259.97
2023-02-19T07:18:30.518Z,100266.78
2023-02-19T07:21:03.220Z,100288.63
2023-02-19T07:26:35.570Z,100285.31
2023-02-19T07:29:03.282Z,100296.78
2023-02-19T07:31:30.832Z,100312.06
2023-02-19T07:33:58.300Z,100318.88
2023-02-19T07:36:26.057Z,100314.25
2023-02-19T07:38:57.356Z,100323.94
2023-02-19T07:44:16.650Z,100331.44
2023-02-19T07:46:45.076Z,100333.88
2023-02-19T07:49:12.511Z,100343.84
2023-02-19T07:51:40.066Z,100346.91
2023-02-19T07:57:05.675Z,100363.66
2023-02-19T07:59:35.341Z,100370.34
2023-02-19T08:02:20.297Z,100363.53
2023-02-19T08:07:31.997Z,100361.56
2023-02-19T08:13:22.555Z,100369.47
2023-02-19T08:15:51.273Z,100369.25
2023-02-19T08:18:19.935Z,100371.25
2023-02-19T08:20:47.748Z,100374.53
2023-02-19T08:23:16.728Z,100379.00
2023-02-19T08:28:51.702Z,100378.94
2023-02-19T08:34:21.984Z,100393.91
2023-02-19T08:36:49.634Z,100399.44
2023-02-19T08:39:21.025Z,100405.28
2023-02-19T08:41:50.447Z,100411.66
2023-02-19T08:44:17.836Z,100408.69
2023-02-19T08:46:45.281Z,100409.00
2023-02-19T08:49:13.694Z,100419.13
2023-02-19T08:51:41.132Z,100415.75
2023-02-19T08:54:08.520Z,100425.66
2023-02-19T08:56:35.955Z,100433.00
2023-02-19T08:59:04.733Z,100434.19
2023-02-19T09:04:36.294Z,100456.91
2023-02-19T09:07:07.511Z,100453.59
2023-02-19T09:09:35.041Z,100455.69
2023-02-19T09:14:53.377Z,100454.19
2023-02-19T09:17:20.873Z,100462.88
2023-02-19T09:19:50.604Z,100467.19
2023-02-19T09:22:18.312Z,100469.84
2023-02-19T09:24:45.985Z,100484.22
2023-02-19T09:27:16.641Z,100489.69
2023-02-19T09:29:44.156Z,100489.59
2023-02-19T09:35:01.281Z,100508.53
2023-02-19T09:37:29.064Z,100510.13
2023-02-19T09:39:56.958Z,100513.53
2023-02-19T09:42:25.971Z,100525.09
2023-02-19T09:47:57.806Z,100524.28
2023-02-19T09:50:33.520Z,100526.94
2023-02-19T09:53:03.059Z,100535.91
2023-02-19T09:55:34.628Z,100546.38
2023-02-19T09:58:03.357Z,100557.88
2023-02-19T10:00:33.030Z,100564.41
2023-02-19T10:03:03.684Z,100570.00
2023-02-19T10:05:33.138Z,100577.41
2023-02-19T10:08:00.870Z,100578.25
2023-02-19T10:10:31.211Z,100573.25
2023-02-19T10:13:12.881Z,100583.97
2023-02-19T10:18:45.117Z,100598.97
2023-02-19T10:21:17.088Z,100607.09
2023-02-19T10:26:46.447Z,100613.69
2023-02-19T10:29:13.850Z,100627.97
2023-02-19T10:31:41.321Z,100616.94
2023-02-19T10:34:18.638Z,100618.34
2023-02-19T10:36:48.699Z,100626.91
2023-02-19T10:39:35.562Z,100639.25
2023-02-19T10:42:03.707Z,100647.16
2023-02-19T10:44:34.828Z,100642.47
2023-02-19T10:47:02.525Z,100652.00
2023-02-19T10:49:32.886Z,100649.06
2023-02-19T10:52:05.353Z,100645.25
2023-02-19T10:54:35.320Z,100636.06
2023-02-19T10:57:25.519Z,100645.97
2023-02-19T10:59:57.452Z,100642.47
2023-02-19T11:02:25.691Z,100644.78
2023-02-19T11:05:19.701Z,100646.59
2023-02-19T11:07:50.445Z,100648.44
2023-02-19T11:13:16.103Z,100661.72
2023-02-19T11:15:44.135Z,100661.88
2023-02-19T11:18:20.077Z,100663.22
2023-02-19T11:20:50.606Z,100662.84
2023-02-19T11:26:17.435Z,100663.00
2023-02-19T11:28:45.146Z,100656.72
2023-02-19T11:31:26.139Z,100654.22
2023-02-19T11:33:57.287Z,100662.53
2023-02-19T11:36:34.014Z,100655.03
2023-02-19T11:39:22.997Z,100660.03
2023-02-19T11:42:01.528Z,100672.19
2023-02-19T11:44:35.581Z,100668.28
2023-02-19T11:47:23.642Z,100670.88
2023-02-19T11:49:56.678Z,100674.66
2023-02-19T11:55:36.500Z,100669.72
2023-02-19T11:58:14.102Z,100668.53
2023-02-19T12:00:46.990Z,100651.47
2023-02-19T12:03:43.475Z,100647.78
2023-02-19T12:06:24.204Z,100654.91
2023-02-19T12:09:24.548Z,100644.66
2023-02-19T12:11:59.463Z,100640.91
2023-02-19T12:14:51.240Z,100642.41
2023-02-19T12:17:32.498Z,100643.16
2023-02-19T12:20:08.247Z,100641.84
2023-02-19T12:22:42.817Z,100645.34
2023-02-19T12:28:19.012Z,100648.66
2023-02-19T12:33:57.887Z,100643.28
2023-02-19T12:36:28.943Z,100643.78
2023-02-19T12:42:04.634Z,100658.03
2023-02-19T12:44:40.095Z,100677.25
2023-02-19T12:47:08.224Z,100677.81
2023-02-19T12:49:38.079Z,100686.44
2023-02-19T12:52:09.420Z,100686.66
2023-02-19T12:54:39.473Z,100682.53
2023-02-19T13:00:25.079Z,100680.59
2023-02-19T13:02:57.008Z,100700.13
2023-02-19T13:05:31.596Z,100699.13
2023-02-19T13:08:03.410Z,100692.22
2023-02-19T13:13:34.329Z,100691.28
2023-02-19T13:16:09.899Z,100697.81
2023-02-19T13:18:42.365Z,100706.03
2023-02-19T13:21:10.181Z,100693.81
2023-02-19T13:23:57.161Z,100697.00
2023-02-19T13:26:42.608Z,100696.25
2023-02-19T13:32:19.999Z,100693.78
2023-02-19T13:34:56.731Z,100697.63
2023-02-19T13:37:24.845Z,100707.72
2023-02-19T13:39:53.592Z,100703.03
2023-02-19T13:42:33.573Z,100702.44
2023-02-19T13:45:02.310Z,100707.09
2023-02-19T13:47:51.691Z,100692.25
2023-02-19T13:50:21.650Z,100707.09
2023-02-19T13:52:49.334Z,100690.28
2023-02-19T13:55:52.272Z,100688.75
2023-02-19T14:01:09.275Z,100692.75
2023-02-19T14:03:50.813Z,100694.59
2023-02-19T14:06:18.502Z,100701.28
2023-02-19T14:08:55.870Z,100704.44
2023-02-19T14:12:03.357Z,100705.44
2023-02-19T14:14:35.807Z,100717.59
2023-02-19T14:17:19.057Z,100714.78
2023-02-19T14:20:27.111Z,100730.41
2023-02-19T14:23:17.496Z,100726.59
2023-02-19T14:28:51.591Z,100742.56
2023-02-19T14:31:29.111Z,100740.63
2023-02-19T14:33:58.187Z,100737.00
2023-02-19T14:39:31.400Z,100749.44
2023-02-19T14:42:01.132Z,100752.00
2023-02-19T14:44:30.331Z,100754.50
2023-02-19T14:47:00.025Z,100760.13
2023-02-19T14:49:31.659Z,100760.91
2023-02-19T14:55:01.238Z,100750.84
2023-02-19T14:57:30.714Z,100747.34
2023-02-19T15:02:30.073Z,100745.72
2023-02-19T15:08:02.073Z,100733.41
2023-02-19T15:10:33.039Z,100731.91
2023-02-19T15:13:03.677Z,100726.50
2023-02-19T15:18:36.175Z,100710.50
2023-02-19T15:21:05.590Z,100700.69
2023-02-19T15:23:34.327Z,100702.44
2023-02-19T15:29:03.455Z,100693.78
2023-02-19T15:31:31.117Z,100686.41
2023-02-19T15:33:58.619Z,100694.63
2023-02-19T15:36:29.127Z,100697.78
2023-02-19T15:38:58.611Z,100698.63
2023-02-19T15:44:31.783Z,100697.72
2023-02-19T15:47:00.358Z,100695.88
2023-02-19T15:49:33.187Z,100696.72
2023-02-19T15:52:03.441Z,100699.13
2023-02-19T15:54:32.867Z,100696.59
2023-02-19T15:57:03.300Z,100704.66
2023-02-19T15:59:36.358Z,100708.00
2023-02-19T16:02:27.888Z,100696.56
2023-02-19T16:04:55.373Z,100710.56
2023-02-19T16:10:20.968Z,100719.25
2023-02-19T16:12:58.740Z,100716.72
2023-02-19T16:18:38.530Z,100731.16
2023-02-19T16:24:15.300Z,100736.78
2023-02-19T16:26:43.790Z,100738.56
2023-02-19T16:29:20.066Z,100743.84
2023-02-19T16:31:51.952Z,100745.97
2023-02-19T16:34:31.781Z,100756.59
2023-02-19T16:36:59.221Z,100758.75
2023-02-19T16:42:17.843Z,100764.50
2023-02-19T16:44:45.978Z,100772.22
2023-02-19T16:47:29.716Z,100766.50
2023-02-19T16:50:00.720Z,100760.53
2023-02-19T16:52:28.459Z,100764.50
2023-02-19T16:54:56.001Z,100762.53
2023-02-19T16:57:23.681Z,100769.59
2023-02-19T17:02:48.055Z,100778.16
2023-02-19T17:05:17.497Z,100780.91
2023-02-19T17:07:44.890Z,100790.94
2023-02-19T17:13:11.381Z,100796.81
2023-02-19T17:15:38.803Z,100797.78
2023-02-19T17:18:06.303Z,100798.50
2023-02-19T17:20:35.415Z,100794.59
2023-02-19T17:23:02.843Z,100796.66
2023-02-19T17:25:30.251Z,100799.44
2023-02-19T17:27:57.710Z,100799.81
2023-02-19T17:30:28.279Z,100799.28
2023-02-19T17:32:56.162Z,100799.97
2023-02-19T17:35:24.142Z,100788.97
2023-02-19T17:37:53.524Z,100795.25
2023-02-19T17:40:32.175Z,100796.25
2023-02-19T17:43:00.578Z,100806.50
2023-02-19T17:48:35.364Z,100816.56
2023-02-19T17:51:02.968Z,100809.72
2023-02-19T17:56:23.093Z,100816.97
2023-02-19T17:58:50.780Z,100810.16
2023-02-19T18:01:18.606Z,100800.41
2023-02-19T18:03:46.187Z,100800.66
2023-02-19T18:06:14.037Z,100797.19
2023-02-19T18:11:47.214Z,100795.53
2023-02-19T18:14:14.661Z,100802.06
2023-02-19T18:16:49.407Z,100805.56
2023-02-19T18:19:17.506Z,100801.66
2023-02-19T18:21:45.010Z,100792.31
2023-02-19T18:24:12.498Z,100796.06
2023-02-19T18:29:31.014Z,100811.66
2023-02-19T18:31:58.656Z,100818.59
2023-02-19T18:34:26.299Z,100825.94
2023-02-19T18:36:53.795Z,100830.84
2023-02-19T18:39:21.461Z,100824.59
2023-02-19T18:44:56.393Z,100837.78
2023-02-19T18:47:26.058Z,100845.72
2023-02-19T18:49:55.454Z,100843.66
2023-02-19T18:52:24.790Z,100844.75
2023-02-19T18:57:54.502Z,100842.13
2023-02-19T19:00:26.467Z,100841.69
2023-02-19T19:02:58.461Z,100842.66
2023-02-19T19:05:26.587Z,100846.50
2023-02-19T19:10:52.419Z,100845.44
2023-02-19T19:13:19.950Z,100839.59
2023-02-19T19:15:51.505Z,100852.75
2023-02-19T19:18:19.181Z,100855.38
2023-02-19T19:23:35.408Z,100854.78
2023-02-19T19:26:05.741Z,100851.53
2023-02-19T19:28:33.488Z,100857.16
2023-02-19T19:31:02.449Z,100856.50
2023-02-19T19:33:30.490Z,100849.69
2023-02-19T19:35:58.186Z,100848.97
2023-02-19T19:38:25.690Z,100845.44
2023-02-19T19:40:53.247Z,100848.25
2023-02-19T19:43:20.708Z,100842.66
2023-02-19T19:45:49.851Z,100845.66
2023-02-19T19:48:18.686Z,100830.84
2023-02-19T19:53:34.819Z,100841.13
2023-02-19T19:56:02.849Z,100836.47
2023-02-19T19:58:30.478Z,100840.84
2023-02-19T20:00:59.049Z,100842.00
2023-02-19T20:03:27.897Z,100852.22
2023-02-19T20:05:56.111Z,100861.38
2023-02-19T20:11:12.692Z,100867.00
2023-02-19T20:13:40.358Z,100870.75
2023-02-19T20:16:10.734Z,100875.78
2023-02-19T20:18:39.655Z,100876.06
2023-02-19T20:24:03.015Z,100876.47
2023-02-19T20:26:31.794Z,100877.50
2023-02-19T20:28:59.664Z,100878.94
2023-02-19T20:31:27.462Z,100887.56
2023-02-19T20:36:45.319Z,100871.44
2023-02-19T20:39:13.002Z,100872.47
2023-02-19T20:41:40.527Z,100863.69
2023-02-19T20:44:08.118Z,100861.84
2023-02-19T20:49:25.808Z,100857.22
2023-02-19T20:54:55.131Z,100850.19
2023-02-19T20:57:23.477Z,100838.59
2023-02-19T20:59:51.102Z,100831.50
2023-02-19T21:02:20.951Z,100846.53
2023-02-19T21:04:48.870Z,100842.66
2023-02-19T21:07:20.745Z,100839.09
2023-02-19T21:09:48.418Z,100832.97
2023-02-19T21:12:16.085Z,100836.53
2023-02-19T21:14:43.618Z,100854.09
2023-02-19T21:17:11.218Z,100859.53
2023-02-19T21:19:38.748Z,100859.84
2023-02-19T21:22:16.046Z,100857.81
2023-02-19T21:24:49.339Z,100858.28
2023-02-19T21:27:16.826Z,100852.47
2023-02-19T21:29:44.328Z,100856.13
2023-02-19T21:32:11.847Z,100852.72
2023-02-19T21:34:42.943Z,100858.25
2023-02-19T21:37:10.505Z,100866.75
2023-02-19T21:39:38.732Z,100875.59
2023-02-19T21:42:07.648Z,100877.13
2023-02-19T21:44:35.163Z,100883.25
2023-02-19T21:47:02.933Z,100885.19
2023-02-19T21:49:30.592Z,100881.31
2023-02-19T21:51:58.121Z,100878.16
2023-02-19T21:54:26.127Z,100874.03
2023-02-19T21:57:26.258Z,100862.63
2023-02-19T21:59:55.128Z,100863.31
2023-02-19T22:02:22.646Z,100866.56
2023-02-19T22:04:54.443Z,100866.03
2023-02-19T22:07:45.849Z,100884.94
2023-02-19T22:10:13.396Z,100887.78
2023-02-19T22:12:40.815Z,100872.31
2023-02-19T22:18:11.763Z,100863.03
2023-02-19T22:20:39.671Z,100858.09
2023-02-19T22:23:07.234Z,100853.75
2023-02-19T22:25:34.716Z,100853.06
2023-02-19T22:30:47.805Z,100839.00
2023-02-19T22:33:16.703Z,100835.84
2023-02-19T22:35:44.225Z,100821.97
2023-02-19T22:38:11.974Z,100829.75
2023-02-19T22:40:39.511Z,100824.91
2023-02-19T22:43:06.979Z,100828.97
2023-02-19T22:45:35.615Z,100823.19
2023-02-19T22:48:03.200Z,100833.34
2023-02-19T22:53:25.246Z,100832.66
2023-02-19T22:55:52.683Z,100839.06
2023-02-19T22:58:20.126Z,100849.84
2023-02-19T23:00:47.777Z,100843.28
2023-02-19T23:03:15.294Z,100844.00
2023-02-19T23:05:42.816Z,100843.06
2023-02-19T23:08:10.380Z,100845.88
2023-02-19T23:10:40.804Z,100849.84
2023-02-19T23:13:08.300Z,100839.97
2023-02-19T23:15:36.017Z,100835.59
2023-02-19T23:20:52.396Z,100847.34
2023-02-19T23:23:19.818Z,100851.50
2023-02-19T23:25:48.668Z,100848.31
2023-02-19T23:28:16.332Z,100844.81
2023-02-19T23:30:44.075Z,100845.66
2023-02-19T23:33:11.663Z,100835.84
2023-02-19T23:38:36.291Z,100834.81
2023-02-19T23:41:09.129Z,100837.69
2023-02-19T23:43:36.603Z,100830.59
2023-02-19T23:46:04.375Z,100834.44
2023-02-19T23:48:32.297Z,100831.38
2023-02-19T23:50:59.815Z,100832.06
2023-02-19T23:53:27.384Z,100831.22
2023-02-19T23:55:54.885Z,100825.03
2023-02-19T23:58:23.734Z,100832.31
